sensor_id;sensor_type;location;lat;lon;timestamp;P1;durP1;ratioP1;P2;durP2;ratioP2
13252;SDS011;6693;54.370;10.132;2023-04-01T00:00:05;13.85;;;5.55;;
13252;SDS011;6693;54.370;10.132;2023-04-01T00:01:10;11.80;;;6.07;;
13252;SDS011;6693;54.370;10.132;2023-04-01T00:02:16;13.70;;;4.97;;
13252;SDS011;6693;54.370;10.132;2023-04-01T00:03:16;16.77;;;6.28;;
13252;SDS011;6693;54.370;10.132;2023-04-01T00:04:20;13.30;;;5.90;;
13252;SDS011;6693;54.370;10.132;2023-04-01T00:05:21;13.38;;;6.00;;
13252;SDS011;6693;54.370;10.132;2023-04-01T00:06:25;16.45;;;6.80;;
13252;SDS011;6693;54.370;10.132;2023-04-01T00:07:25;16.02;;;6.03;;
13252;SDS011;6693;54.370;10.132;2023-04-01T00:08:29;13.85;;;5.70;;
13252;SDS011;6693;54.370;10.132;2023-04-01T00:09:30;12.43;;;5.78;;
13252;SDS011;6693;54.370;10.132;2023-04-01T00:10:33;8.80;;;4.63;;
13252;SDS011;6693;54.370;10.132;2023-04-01T00:11:34;11.77;;;4.72;;
13252;SDS011;6693;54.370;10.132;2023-04-01T00:12:37;10.88;;;4.97;;
13252;SDS011;6693;54.370;10.132;2023-04-01T00:13:38;9.02;;;3.80;;
13252;SDS011;6693;54.370;10.132;2023-04-01T00:14:41;9.65;;;4.88;;
13252;SDS011;6693;54.370;10.132;2023-04-01T00:15:42;10.68;;;4.60;;
13252;SDS011;6693;54.370;10.132;2023-04-01T00:16:48;9.68;;;3.85;;
13252;SDS011;6693;54.370;10.132;2023-04-01T00:17:49;8.32;;;4.07;;
13252;SDS011;6693;54.370;10.132;2023-04-01T00:18:52;9.35;;;4.28;;
13252;SDS011;6693;54.370;10.132;2023-04-01T00:19:54;8.30;;;3.55;;
13252;SDS011;6693;54.370;10.132;2023-04-01T00:20:57;8.70;;;3.47;;
13252;SDS011;6693;54.370;10.132;2023-04-01T00:21:58;7.40;;;3.60;;
13252;SDS011;6693;54.370;10.132;2023-04-01T00:23:02;8.80;;;3.42;;
13252;SDS011;6693;54.370;10.132;2023-04-01T00:24:03;9.20;;;4.32;;
13252;SDS011;6693;54.370;10.132;2023-04-01T00:25:07;8.55;;;3.78;;
13252;SDS011;6693;54.370;10.132;2023-04-01T00:26:08;8.02;;;3.90;;
13252;SDS011;6693;54.370;10.132;2023-04-01T00:27:12;8.20;;;3.80;;
13252;SDS011;6693;54.370;10.132;2023-04-01T00:28:12;9.02;;;3.85;;
13252;SDS011;6693;54.370;10.132;2023-04-01T00:29:16;9.70;;;4.45;;
13252;SDS011;6693;54.370;10.132;2023-04-01T00:30:16;8.90;;;3.72;;
13252;SDS011;6693;54.370;10.132;2023-04-01T00:31:20;8.75;;;3.50;;
13252;SDS011;6693;54.370;10.132;2023-04-01T00:32:23;9.00;;;4.22;;
13252;SDS011;6693;54.370;10.132;2023-04-01T00:33:27;8.10;;;3.88;;
13252;SDS011;6693;54.370;10.132;2023-04-01T00:34:27;8.32;;;3.80;;
13252;SDS011;6693;54.370;10.132;2023-04-01T00:35:31;10.50;;;3.83;;
13252;SDS011;6693;54.370;10.132;2023-04-01T00:36:32;8.35;;;4.07;;
13252;SDS011;6693;54.370;10.132;2023-04-01T00:37:35;7.35;;;3.50;;
13252;SDS011;6693;54.370;10.132;2023-04-01T00:38:37;9.40;;;3.83;;
13252;SDS011;6693;54.370;10.132;2023-04-01T00:39:41;9.18;;;4.07;;
13252;SDS011;6693;54.370;10.132;2023-04-01T00:40:43;7.32;;;3.72;;
13252;SDS011;6693;54.370;10.132;2023-04-01T00:41:48;9.45;;;4.53;;
13252;SDS011;6693;54.370;10.132;2023-04-01T00:42:49;7.53;;;3.50;;
13252;SDS011;6693;54.370;10.132;2023-04-01T00:43:52;7.60;;;3.60;;
13252;SDS011;6693;54.370;10.132;2023-04-01T00:44:53;8.95;;;4.45;;
13252;SDS011;6693;54.370;10.132;2023-04-01T00:45:57;8.73;;;3.15;;
13252;SDS011;6693;54.370;10.132;2023-04-01T00:46:58;8.00;;;4.00;;
13252;SDS011;6693;54.370;10.132;2023-04-01T00:48:05;6.10;;;3.25;;
13252;SDS011;6693;54.370;10.132;2023-04-01T00:49:08;9.48;;;4.35;;
13252;SDS011;6693;54.370;10.132;2023-04-01T00:50:12;6.72;;;3.72;;
13252;SDS011;6693;54.370;10.132;2023-04-01T00:51:13;7.18;;;3.63;;
13252;SDS011;6693;54.370;10.132;2023-04-01T00:52:19;7.78;;;3.65;;
13252;SDS011;6693;54.370;10.132;2023-04-01T00:53:22;7.53;;;3.08;;
13252;SDS011;6693;54.370;10.132;2023-04-01T00:54:27;8.07;;;3.30;;
13252;SDS011;6693;54.370;10.132;2023-04-01T00:55:29;6.55;;;3.00;;
13252;SDS011;6693;54.370;10.132;2023-04-01T00:56:34;6.40;;;3.10;;
13252;SDS011;6693;54.370;10.132;2023-04-01T00:57:36;6.30;;;2.85;;
13252;SDS011;6693;54.370;10.132;2023-04-01T00:58:41;6.63;;;2.80;;
13252;SDS011;6693;54.370;10.132;2023-04-01T00:59:44;9.13;;;3.00;;
13252;SDS011;6693;54.370;10.132;2023-04-01T01:00:49;6.10;;;3.10;;
13252;SDS011;6693;54.370;10.132;2023-04-01T01:01:51;6.43;;;2.85;;
13252;SDS011;6693;54.370;10.132;2023-04-01T01:02:54;8.68;;;3.42;;
13252;SDS011;6693;54.370;10.132;2023-04-01T01:03:57;5.78;;;2.92;;
13252;SDS011;6693;54.370;10.132;2023-04-01T01:05:02;8.93;;;3.03;;
13252;SDS011;6693;54.370;10.132;2023-04-01T01:06:08;7.75;;;2.90;;
13252;SDS011;6693;54.370;10.132;2023-04-01T01:07:17;7.95;;;3.65;;
13252;SDS011;6693;54.370;10.132;2023-04-01T01:08:27;7.20;;;3.95;;
13252;SDS011;6693;54.370;10.132;2023-04-01T01:09:35;6.90;;;2.70;;
13252;SDS011;6693;54.370;10.132;2023-04-01T01:10:44;6.40;;;3.40;;
13252;SDS011;6693;54.370;10.132;2023-04-01T01:11:50;7.32;;;3.50;;
13252;SDS011;6693;54.370;10.132;2023-04-01T01:12:58;7.63;;;3.30;;
13252;SDS011;6693;54.370;10.132;2023-04-01T01:14:06;8.10;;;3.40;;
13252;SDS011;6693;54.370;10.132;2023-04-01T01:15:15;7.50;;;3.60;;
13252;SDS011;6693;54.370;10.132;2023-04-01T01:16:21;7.10;;;3.50;;
13252;SDS011;6693;54.370;10.132;2023-04-01T01:18:34;6.35;;;3.50;;
13252;SDS011;6693;54.370;10.132;2023-04-01T01:19:57;6.93;;;3.17;;
13252;SDS011;6693;54.370;10.132;2023-04-01T01:22:22;6.30;;;3.25;;
13252;SDS011;6693;54.370;10.132;2023-04-01T01:23:52;6.18;;;2.58;;
13252;SDS011;6693;54.370;10.132;2023-04-01T01:25:32;6.18;;;2.60;;
13252;SDS011;6693;54.370;10.132;2023-04-01T01:26:41;7.18;;;2.45;;
13252;SDS011;6693;54.370;10.132;2023-04-01T01:27:58;8.32;;;2.67;;
13252;SDS011;6693;54.370;10.132;2023-04-01T01:29:15;6.95;;;2.22;;
13252;SDS011;6693;54.370;10.132;2023-04-01T01:30:37;8.02;;;2.50;;
13252;SDS011;6693;54.370;10.132;2023-04-01T01:31:44;6.18;;;2.65;;
13252;SDS011;6693;54.370;10.132;2023-04-01T01:33:02;7.68;;;2.72;;
13252;SDS011;6693;54.370;10.132;2023-04-01T01:34:14;7.95;;;3.47;;
13252;SDS011;6693;54.370;10.132;2023-04-01T01:35:22;7.05;;;2.53;;
13252;SDS011;6693;54.370;10.132;2023-04-01T01:36:30;6.07;;;3.00;;
13252;SDS011;6693;54.370;10.132;2023-04-01T01:37:34;8.90;;;2.97;;
13252;SDS011;6693;54.370;10.132;2023-04-01T01:38:37;8.13;;;2.97;;
13252;SDS011;6693;54.370;10.132;2023-04-01T01:39:38;5.80;;;3.00;;
13252;SDS011;6693;54.370;10.132;2023-04-01T01:40:43;7.40;;;3.35;;
13252;SDS011;6693;54.370;10.132;2023-04-01T01:41:45;7.63;;;3.45;;
13252;SDS011;6693;54.370;10.132;2023-04-01T01:42:50;5.78;;;2.97;;
13252;SDS011;6693;54.370;10.132;2023-04-01T01:43:52;7.30;;;2.70;;
13252;SDS011;6693;54.370;10.132;2023-04-01T01:44:56;8.65;;;2.55;;
13252;SDS011;6693;54.370;10.132;2023-04-01T01:45:58;7.88;;;3.03;;
13252;SDS011;6693;54.370;10.132;2023-04-01T01:47:03;6.28;;;1.75;;
13252;SDS011;6693;54.370;10.132;2023-04-01T01:48:04;8.70;;;2.92;;
13252;SDS011;6693;54.370;10.132;2023-04-01T01:49:08;6.00;;;2.75;;
13252;SDS011;6693;54.370;10.132;2023-04-01T01:50:11;6.25;;;2.00;;
13252;SDS011;6693;54.370;10.132;2023-04-01T01:51:17;4.63;;;1.60;;
13252;SDS011;6693;54.370;10.132;2023-04-01T01:52:18;6.05;;;2.83;;
13252;SDS011;6693;54.370;10.132;2023-04-01T01:53:21;5.30;;;2.00;;
13252;SDS011;6693;54.370;10.132;2023-04-01T01:54:22;6.97;;;2.70;;
13252;SDS011;6693;54.370;10.132;2023-04-01T01:55:27;8.73;;;2.50;;
13252;SDS011;6693;54.370;10.132;2023-04-01T01:56:28;6.40;;;2.72;;
13252;SDS011;6693;54.370;10.132;2023-04-01T01:57:33;5.43;;;2.42;;
13252;SDS011;6693;54.370;10.132;2023-04-01T01:58:35;7.22;;;2.65;;
13252;SDS011;6693;54.370;10.132;2023-04-01T01:59:40;6.32;;;2.78;;
13252;SDS011;6693;54.370;10.132;2023-04-01T02:00:43;7.00;;;2.67;;
13252;SDS011;6693;54.370;10.132;2023-04-01T02:01:48;8.00;;;2.83;;
13252;SDS011;6693;54.370;10.132;2023-04-01T02:02:51;4.78;;;1.73;;
13252;SDS011;6693;54.370;10.132;2023-04-01T02:03:54;7.15;;;2.22;;
13252;SDS011;6693;54.370;10.132;2023-04-01T02:04:55;6.78;;;1.65;;
13252;SDS011;6693;54.370;10.132;2023-04-01T02:05:59;7.78;;;2.50;;
13252;SDS011;6693;54.370;10.132;2023-04-01T02:07:04;6.78;;;2.30;;
13252;SDS011;6693;54.370;10.132;2023-04-01T02:08:12;5.03;;;1.92;;
13252;SDS011;6693;54.370;10.132;2023-04-01T02:09:13;7.28;;;1.90;;
13252;SDS011;6693;54.370;10.132;2023-04-01T02:10:14;8.25;;;2.10;;
13252;SDS011;6693;54.370;10.132;2023-04-01T02:11:18;6.45;;;2.30;;
13252;SDS011;6693;54.370;10.132;2023-04-01T02:12:20;5.10;;;1.85;;
13252;SDS011;6693;54.370;10.132;2023-04-01T02:13:25;6.07;;;2.38;;
13252;SDS011;6693;54.370;10.132;2023-04-01T02:14:29;4.38;;;1.73;;
13252;SDS011;6693;54.370;10.132;2023-04-01T02:15:40;6.38;;;1.88;;
13252;SDS011;6693;54.370;10.132;2023-04-01T02:16:43;5.22;;;1.98;;
13252;SDS011;6693;54.370;10.132;2023-04-01T02:17:50;6.15;;;1.40;;
13252;SDS011;6693;54.370;10.132;2023-04-01T02:18:52;5.60;;;1.35;;
13252;SDS011;6693;54.370;10.132;2023-04-01T02:19:57;5.60;;;2.47;;
13252;SDS011;6693;54.370;10.132;2023-04-01T02:20:59;5.80;;;2.58;;
13252;SDS011;6693;54.370;10.132;2023-04-01T02:22:08;5.35;;;1.52;;
13252;SDS011;6693;54.370;10.132;2023-04-01T02:23:10;5.80;;;2.67;;
13252;SDS011;6693;54.370;10.132;2023-04-01T02:24:14;5.15;;;1.92;;
13252;SDS011;6693;54.370;10.132;2023-04-01T02:25:15;6.65;;;1.73;;
13252;SDS011;6693;54.370;10.132;2023-04-01T02:26:20;7.35;;;1.88;;
13252;SDS011;6693;54.370;10.132;2023-04-01T02:27:21;5.20;;;1.98;;
13252;SDS011;6693;54.370;10.132;2023-04-01T02:28:25;6.35;;;2.13;;
13252;SDS011;6693;54.370;10.132;2023-04-01T02:29:26;3.40;;;1.00;;
13252;SDS011;6693;54.370;10.132;2023-04-01T02:30:30;6.68;;;1.60;;
13252;SDS011;6693;54.370;10.132;2023-04-01T02:31:32;5.68;;;1.80;;
13252;SDS011;6693;54.370;10.132;2023-04-01T02:32:37;3.65;;;1.48;;
13252;SDS011;6693;54.370;10.132;2023-04-01T02:33:38;5.15;;;1.48;;
13252;SDS011;6693;54.370;10.132;2023-04-01T02:34:42;4.65;;;1.30;;
13252;SDS011;6693;54.370;10.132;2023-04-01T02:35:43;5.75;;;1.80;;
13252;SDS011;6693;54.370;10.132;2023-04-01T02:36:46;4.38;;;1.60;;
13252;SDS011;6693;54.370;10.132;2023-04-01T02:37:50;4.75;;;1.35;;
13252;SDS011;6693;54.370;10.132;2023-04-01T02:38:55;5.40;;;1.40;;
13252;SDS011;6693;54.370;10.132;2023-04-01T02:41:01;3.95;;;1.13;;
13252;SDS011;6693;54.370;10.132;2023-04-01T02:42:02;5.00;;;1.23;;
13252;SDS011;6693;54.370;10.132;2023-04-01T02:43:06;2.67;;;0.50;;
13252;SDS011;6693;54.370;10.132;2023-04-01T02:44:06;3.85;;;1.15;;
13252;SDS011;6693;54.370;10.132;2023-04-01T02:45:10;2.65;;;0.95;;
13252;SDS011;6693;54.370;10.132;2023-04-01T02:46:12;3.58;;;0.90;;
13252;SDS011;6693;54.370;10.132;2023-04-01T02:47:15;3.08;;;1.10;;
13252;SDS011;6693;54.370;10.132;2023-04-01T02:48:15;3.78;;;1.23;;
13252;SDS011;6693;54.370;10.132;2023-04-01T02:49:19;3.38;;;1.13;;
13252;SDS011;6693;54.370;10.132;2023-04-01T02:50:19;4.07;;;1.00;;
13252;SDS011;6693;54.370;10.132;2023-04-01T02:51:23;3.35;;;1.23;;
13252;SDS011;6693;54.370;10.132;2023-04-01T02:52:23;5.35;;;1.23;;
13252;SDS011;6693;54.370;10.132;2023-04-01T02:53:29;4.07;;;1.77;;
13252;SDS011;6693;54.370;10.132;2023-04-01T02:54:30;3.45;;;1.17;;
13252;SDS011;6693;54.370;10.132;2023-04-01T02:55:33;3.35;;;1.08;;
13252;SDS011;6693;54.370;10.132;2023-04-01T02:56:34;4.63;;;1.23;;
13252;SDS011;6693;54.370;10.132;2023-04-01T02:57:37;2.72;;;1.00;;
13252;SDS011;6693;54.370;10.132;2023-04-01T02:58:38;3.38;;;0.70;;
13252;SDS011;6693;54.370;10.132;2023-04-01T02:59:41;4.50;;;1.10;;
13252;SDS011;6693;54.370;10.132;2023-04-01T03:00:41;5.57;;;1.05;;
13252;SDS011;6693;54.370;10.132;2023-04-01T03:01:45;6.22;;;1.65;;
13252;SDS011;6693;54.370;10.132;2023-04-01T03:02:45;5.32;;;0.77;;
13252;SDS011;6693;54.370;10.132;2023-04-01T03:03:48;5.22;;;1.27;;
13252;SDS011;6693;54.370;10.132;2023-04-01T03:04:49;5.72;;;1.23;;
13252;SDS011;6693;54.370;10.132;2023-04-01T03:05:52;3.03;;;1.08;;
13252;SDS011;6693;54.370;10.132;2023-04-01T03:06:55;3.60;;;0.50;;
13252;SDS011;6693;54.370;10.132;2023-04-01T03:07:59;3.65;;;1.02;;
13252;SDS011;6693;54.370;10.132;2023-04-01T03:09:02;4.38;;;1.00;;
13252;SDS011;6693;54.370;10.132;2023-04-01T03:10:06;3.67;;;1.30;;
13252;SDS011;6693;54.370;10.132;2023-04-01T03:12:11;5.20;;;1.30;;
13252;SDS011;6693;54.370;10.132;2023-04-01T03:13:12;4.82;;;0.63;;
13252;SDS011;6693;54.370;10.132;2023-04-01T03:14:15;4.82;;;1.42;;
13252;SDS011;6693;54.370;10.132;2023-04-01T03:15:15;3.03;;;0.68;;
13252;SDS011;6693;54.370;10.132;2023-04-01T03:16:19;5.28;;;1.15;;
13252;SDS011;6693;54.370;10.132;2023-04-01T03:17:20;5.18;;;1.73;;
13252;SDS011;6693;54.370;10.132;2023-04-01T03:18:23;4.82;;;1.05;;
13252;SDS011;6693;54.370;10.132;2023-04-01T03:19:23;7.25;;;1.17;;
13252;SDS011;6693;54.370;10.132;2023-04-01T03:20:27;2.75;;;1.00;;
13252;SDS011;6693;54.370;10.132;2023-04-01T03:21:27;3.78;;;1.02;;
13252;SDS011;6693;54.370;10.132;2023-04-01T03:22:30;4.10;;;1.35;;
13252;SDS011;6693;54.370;10.132;2023-04-01T03:23:31;6.18;;;1.25;;
13252;SDS011;6693;54.370;10.132;2023-04-01T03:24:37;3.67;;;1.20;;
13252;SDS011;6693;54.370;10.132;2023-04-01T03:25:38;5.53;;;1.60;;
13252;SDS011;6693;54.370;10.132;2023-04-01T03:26:41;4.03;;;1.75;;
13252;SDS011;6693;54.370;10.132;2023-04-01T03:27:41;3.55;;;1.33;;
13252;SDS011;6693;54.370;10.132;2023-04-01T03:28:45;6.00;;;1.92;;
13252;SDS011;6693;54.370;10.132;2023-04-01T03:29:45;4.68;;;1.23;;
13252;SDS011;6693;54.370;10.132;2023-04-01T03:30:48;4.22;;;1.42;;
13252;SDS011;6693;54.370;10.132;2023-04-01T03:31:49;4.25;;;1.17;;
13252;SDS011;6693;54.370;10.132;2023-04-01T03:32:52;4.43;;;0.63;;
13252;SDS011;6693;54.370;10.132;2023-04-01T03:33:55;6.18;;;1.33;;
13252;SDS011;6693;54.370;10.132;2023-04-01T03:34:56;3.55;;;0.90;;
13252;SDS011;6693;54.370;10.132;2023-04-01T03:36:00;3.30;;;1.15;;
13252;SDS011;6693;54.370;10.132;2023-04-01T03:37:00;5.63;;;1.35;;
13252;SDS011;6693;54.370;10.132;2023-04-01T03:38:03;4.38;;;1.40;;
13252;SDS011;6693;54.370;10.132;2023-04-01T03:39:04;3.17;;;0.57;;
13252;SDS011;6693;54.370;10.132;2023-04-01T03:40:10;4.07;;;1.30;;
13252;SDS011;6693;54.370;10.132;2023-04-01T03:41:12;4.60;;;1.45;;
13252;SDS011;6693;54.370;10.132;2023-04-01T03:42:17;2.85;;;1.27;;
13252;SDS011;6693;54.370;10.132;2023-04-01T03:43:18;4.82;;;0.70;;
13252;SDS011;6693;54.370;10.132;2023-04-01T03:44:22;9.30;;;1.48;;
13252;SDS011;6693;54.370;10.132;2023-04-01T03:45:23;5.43;;;1.15;;
13252;SDS011;6693;54.370;10.132;2023-04-01T03:46:26;3.08;;;0.90;;
13252;SDS011;6693;54.370;10.132;2023-04-01T03:47:26;4.05;;;0.80;;
13252;SDS011;6693;54.370;10.132;2023-04-01T03:48:29;4.45;;;1.10;;
13252;SDS011;6693;54.370;10.132;2023-04-01T03:49:30;4.20;;;0.57;;
13252;SDS011;6693;54.370;10.132;2023-04-01T03:50:34;3.67;;;1.35;;
13252;SDS011;6693;54.370;10.132;2023-04-01T03:51:35;4.00;;;1.40;;
13252;SDS011;6693;54.370;10.132;2023-04-01T03:52:38;3.50;;;1.20;;
13252;SDS011;6693;54.370;10.132;2023-04-01T03:53:39;4.25;;;1.30;;
13252;SDS011;6693;54.370;10.132;2023-04-01T03:54:42;3.10;;;1.27;;
13252;SDS011;6693;54.370;10.132;2023-04-01T03:55:45;3.90;;;1.52;;
13252;SDS011;6693;54.370;10.132;2023-04-01T03:56:48;4.05;;;1.00;;
13252;SDS011;6693;54.370;10.132;2023-04-01T03:57:49;3.78;;;1.30;;
13252;SDS011;6693;54.370;10.132;2023-04-01T03:58:53;3.58;;;0.68;;
13252;SDS011;6693;54.370;10.132;2023-04-01T03:59:53;4.57;;;1.38;;
13252;SDS011;6693;54.370;10.132;2023-04-01T04:00:56;3.13;;;0.73;;
13252;SDS011;6693;54.370;10.132;2023-04-01T04:01:57;4.65;;;0.70;;
13252;SDS011;6693;54.370;10.132;2023-04-01T04:03:00;4.55;;;1.38;;
13252;SDS011;6693;54.370;10.132;2023-04-01T04:04:01;4.38;;;1.67;;
13252;SDS011;6693;54.370;10.132;2023-04-01T04:05:05;4.22;;;0.65;;
13252;SDS011;6693;54.370;10.132;2023-04-01T04:07:13;2.83;;;0.85;;
13252;SDS011;6693;54.370;10.132;2023-04-01T04:08:13;5.38;;;1.70;;
13252;SDS011;6693;54.370;10.132;2023-04-01T04:09:17;3.63;;;1.65;;
13252;SDS011;6693;54.370;10.132;2023-04-01T04:10:17;4.60;;;0.70;;
13252;SDS011;6693;54.370;10.132;2023-04-01T04:11:24;3.00;;;1.23;;
13252;SDS011;6693;54.370;10.132;2023-04-01T04:12:25;5.10;;;1.40;;
13252;SDS011;6693;54.370;10.132;2023-04-01T04:13:29;3.63;;;1.30;;
13252;SDS011;6693;54.370;10.132;2023-04-01T04:14:29;3.55;;;1.42;;
13252;SDS011;6693;54.370;10.132;2023-04-01T04:15:32;5.40;;;1.45;;
13252;SDS011;6693;54.370;10.132;2023-04-01T04:16:34;4.93;;;1.50;;
13252;SDS011;6693;54.370;10.132;2023-04-01T04:17:38;4.82;;;1.55;;
13252;SDS011;6693;54.370;10.132;2023-04-01T04:18:39;5.55;;;0.90;;
13252;SDS011;6693;54.370;10.132;2023-04-01T04:19:43;4.72;;;1.50;;
13252;SDS011;6693;54.370;10.132;2023-04-01T04:20:44;6.65;;;1.73;;
13252;SDS011;6693;54.370;10.132;2023-04-01T04:21:50;4.72;;;1.70;;
13252;SDS011;6693;54.370;10.132;2023-04-01T04:22:50;4.13;;;1.23;;
13252;SDS011;6693;54.370;10.132;2023-04-01T04:23:54;4.28;;;1.10;;
13252;SDS011;6693;54.370;10.132;2023-04-01T04:24:55;3.67;;;1.25;;
13252;SDS011;6693;54.370;10.132;2023-04-01T04:25:58;4.55;;;1.23;;
13252;SDS011;6693;54.370;10.132;2023-04-01T04:27:03;4.07;;;1.00;;
13252;SDS011;6693;54.370;10.132;2023-04-01T04:28:06;6.13;;;1.60;;
13252;SDS011;6693;54.370;10.132;2023-04-01T04:29:07;3.22;;;0.98;;
13252;SDS011;6693;54.370;10.132;2023-04-01T04:30:10;5.32;;;1.58;;
13252;SDS011;6693;54.370;10.132;2023-04-01T04:31:11;5.00;;;1.48;;
13252;SDS011;6693;54.370;10.132;2023-04-01T04:32:15;4.10;;;1.00;;
13252;SDS011;6693;54.370;10.132;2023-04-01T04:33:15;5.68;;;1.40;;
13252;SDS011;6693;54.370;10.132;2023-04-01T04:34:18;3.90;;;1.40;;
13252;SDS011;6693;54.370;10.132;2023-04-01T04:35:19;4.35;;;1.60;;
13252;SDS011;6693;54.370;10.132;2023-04-01T04:36:22;6.10;;;1.50;;
13252;SDS011;6693;54.370;10.132;2023-04-01T04:37:23;4.90;;;0.68;;
13252;SDS011;6693;54.370;10.132;2023-04-01T04:38:26;4.28;;;1.35;;
13252;SDS011;6693;54.370;10.132;2023-04-01T04:39:27;4.82;;;1.48;;
13252;SDS011;6693;54.370;10.132;2023-04-01T04:40:30;3.17;;;1.25;;
13252;SDS011;6693;54.370;10.132;2023-04-01T04:41:31;4.90;;;0.90;;
13252;SDS011;6693;54.370;10.132;2023-04-01T04:42:37;3.42;;;1.40;;
13252;SDS011;6693;54.370;10.132;2023-04-01T04:43:37;3.28;;;1.85;;
13252;SDS011;6693;54.370;10.132;2023-04-01T04:44:41;4.28;;;1.17;;
13252;SDS011;6693;54.370;10.132;2023-04-01T04:45:41;4.88;;;1.23;;
13252;SDS011;6693;54.370;10.132;2023-04-01T04:46:45;4.32;;;1.27;;
13252;SDS011;6693;54.370;10.132;2023-04-01T04:47:46;4.43;;;1.73;;
13252;SDS011;6693;54.370;10.132;2023-04-01T04:48:49;3.38;;;0.60;;
13252;SDS011;6693;54.370;10.132;2023-04-01T04:49:49;4.15;;;1.30;;
13252;SDS011;6693;54.370;10.132;2023-04-01T04:50:52;3.83;;;1.10;;
13252;SDS011;6693;54.370;10.132;2023-04-01T04:51:53;4.32;;;1.33;;
13252;SDS011;6693;54.370;10.132;2023-04-01T04:52:56;4.30;;;1.35;;
13252;SDS011;6693;54.370;10.132;2023-04-01T04:53:57;3.72;;;0.98;;
13252;SDS011;6693;54.370;10.132;2023-04-01T04:55:00;4.18;;;1.05;;
13252;SDS011;6693;54.370;10.132;2023-04-01T04:56:01;4.68;;;1.38;;
13252;SDS011;6693;54.370;10.132;2023-04-01T04:57:04;4.93;;;1.20;;
13252;SDS011;6693;54.370;10.132;2023-04-01T04:58:07;5.45;;;1.88;;
13252;SDS011;6693;54.370;10.132;2023-04-01T04:59:11;3.83;;;1.30;;
13252;SDS011;6693;54.370;10.132;2023-04-01T05:00:12;4.05;;;1.10;;
13252;SDS011;6693;54.370;10.132;2023-04-01T05:01:16;4.47;;;1.20;;
13252;SDS011;6693;54.370;10.132;2023-04-01T05:02:17;3.70;;;0.73;;
13252;SDS011;6693;54.370;10.132;2023-04-01T05:03:20;3.97;;;1.30;;
13252;SDS011;6693;54.370;10.132;2023-04-01T05:04:21;4.90;;;1.42;;
13252;SDS011;6693;54.370;10.132;2023-04-01T05:05:24;3.72;;;1.65;;
13252;SDS011;6693;54.370;10.132;2023-04-01T05:06:25;6.20;;;1.42;;
13252;SDS011;6693;54.370;10.132;2023-04-01T05:07:29;3.80;;;1.20;;
13252;SDS011;6693;54.370;10.132;2023-04-01T05:08:30;3.33;;;1.10;;
13252;SDS011;6693;54.370;10.132;2023-04-01T05:09:34;6.13;;;1.40;;
13252;SDS011;6693;54.370;10.132;2023-04-01T05:10:34;3.53;;;1.13;;
13252;SDS011;6693;54.370;10.132;2023-04-01T05:11:38;3.47;;;1.40;;
13252;SDS011;6693;54.370;10.132;2023-04-01T05:12:38;3.50;;;1.48;;
13252;SDS011;6693;54.370;10.132;2023-04-01T05:13:44;3.63;;;1.33;;
13252;SDS011;6693;54.370;10.132;2023-04-01T05:14:45;4.93;;;1.58;;
13252;SDS011;6693;54.370;10.132;2023-04-01T05:15:48;4.50;;;1.40;;
13252;SDS011;6693;54.370;10.132;2023-04-01T05:16:49;3.30;;;1.13;;
13252;SDS011;6693;54.370;10.132;2023-04-01T05:17:52;5.07;;;1.30;;
13252;SDS011;6693;54.370;10.132;2023-04-01T05:18:53;4.18;;;1.10;;
13252;SDS011;6693;54.370;10.132;2023-04-01T05:19:56;4.65;;;1.42;;
13252;SDS011;6693;54.370;10.132;2023-04-01T05:20:57;5.07;;;1.40;;
13252;SDS011;6693;54.370;10.132;2023-04-01T05:22:00;5.63;;;1.60;;
13252;SDS011;6693;54.370;10.132;2023-04-01T05:23:00;5.00;;;1.55;;
13252;SDS011;6693;54.370;10.132;2023-04-01T05:24:07;5.32;;;1.42;;
13252;SDS011;6693;54.370;10.132;2023-04-01T05:25:10;3.20;;;1.10;;
13252;SDS011;6693;54.370;10.132;2023-04-01T05:26:12;4.10;;;1.40;;
13252;SDS011;6693;54.370;10.132;2023-04-01T05:27:16;2.78;;;0.68;;
13252;SDS011;6693;54.370;10.132;2023-04-01T05:28:17;4.40;;;1.27;;
13252;SDS011;6693;54.370;10.132;2023-04-01T05:29:23;4.55;;;1.58;;
13252;SDS011;6693;54.370;10.132;2023-04-01T05:30:23;6.45;;;0.93;;
13252;SDS011;6693;54.370;10.132;2023-04-01T05:31:26;4.53;;;1.20;;
13252;SDS011;6693;54.370;10.132;2023-04-01T05:32:27;5.60;;;1.55;;
13252;SDS011;6693;54.370;10.132;2023-04-01T05:33:30;3.95;;;1.50;;
13252;SDS011;6693;54.370;10.132;2023-04-01T05:34:31;4.95;;;1.50;;
13252;SDS011;6693;54.370;10.132;2023-04-01T05:35:34;4.45;;;1.65;;
13252;SDS011;6693;54.370;10.132;2023-04-01T05:36:35;4.32;;;1.33;;
13252;SDS011;6693;54.370;10.132;2023-04-01T05:37:38;3.90;;;0.80;;
13252;SDS011;6693;54.370;10.132;2023-04-01T05:38:39;4.32;;;1.35;;
13252;SDS011;6693;54.370;10.132;2023-04-01T05:39:43;4.18;;;1.20;;
13252;SDS011;6693;54.370;10.132;2023-04-01T05:40:43;3.00;;;1.17;;
13252;SDS011;6693;54.370;10.132;2023-04-01T05:41:47;4.03;;;1.27;;
13252;SDS011;6693;54.370;10.132;2023-04-01T05:42:47;3.83;;;1.40;;
13252;SDS011;6693;54.370;10.132;2023-04-01T05:43:50;3.75;;;0.70;;
13252;SDS011;6693;54.370;10.132;2023-04-01T05:44:53;5.22;;;1.30;;
13252;SDS011;6693;54.370;10.132;2023-04-01T05:45:57;4.20;;;1.63;;
13252;SDS011;6693;54.370;10.132;2023-04-01T05:46:58;3.97;;;1.75;;
13252;SDS011;6693;54.370;10.132;2023-04-01T05:48:01;4.70;;;1.38;;
13252;SDS011;6693;54.370;10.132;2023-04-01T05:49:02;4.22;;;1.48;;
13252;SDS011;6693;54.370;10.132;2023-04-01T05:50:05;3.45;;;0.80;;
13252;SDS011;6693;54.370;10.132;2023-04-01T05:51:11;5.43;;;1.50;;
13252;SDS011;6693;54.370;10.132;2023-04-01T05:52:15;4.95;;;0.90;;
13252;SDS011;6693;54.370;10.132;2023-04-01T05:53:16;3.10;;;1.13;;
13252;SDS011;6693;54.370;10.132;2023-04-01T05:54:19;4.03;;;1.35;;
13252;SDS011;6693;54.370;10.132;2023-04-01T05:55:20;3.75;;;1.25;;
13252;SDS011;6693;54.370;10.132;2023-04-01T05:56:23;4.47;;;1.27;;
13252;SDS011;6693;54.370;10.132;2023-04-01T05:57:23;5.18;;;1.58;;
13252;SDS011;6693;54.370;10.132;2023-04-01T05:58:27;3.33;;;0.93;;
13252;SDS011;6693;54.370;10.132;2023-04-01T05:59:27;3.08;;;1.20;;
13252;SDS011;6693;54.370;10.132;2023-04-01T06:00:33;4.05;;;1.58;;
13252;SDS011;6693;54.370;10.132;2023-04-01T06:01:34;4.50;;;1.33;;
13252;SDS011;6693;54.370;10.132;2023-04-01T06:02:37;5.82;;;1.20;;
13252;SDS011;6693;54.370;10.132;2023-04-01T06:03:39;5.43;;;0.82;;
13252;SDS011;6693;54.370;10.132;2023-04-01T06:04:42;4.30;;;1.23;;
13252;SDS011;6693;54.370;10.132;2023-04-01T06:05:45;7.80;;;0.80;;
13252;SDS011;6693;54.370;10.132;2023-04-01T06:06:46;4.40;;;1.52;;
13252;SDS011;6693;54.370;10.132;2023-04-01T06:07:49;4.15;;;1.38;;
13252;SDS011;6693;54.370;10.132;2023-04-01T06:08:51;8.48;;;1.58;;
13252;SDS011;6693;54.370;10.132;2023-04-01T06:09:55;5.00;;;1.63;;
13252;SDS011;6693;54.370;10.132;2023-04-01T06:10:59;5.07;;;1.20;;
13252;SDS011;6693;54.370;10.132;2023-04-01T06:12:20;4.15;;;1.45;;
13252;SDS011;6693;54.370;10.132;2023-04-01T06:13:54;3.28;;;1.02;;
13252;SDS011;6693;54.370;10.132;2023-04-01T06:15:08;3.45;;;1.40;;
13252;SDS011;6693;54.370;10.132;2023-04-01T06:16:21;2.85;;;1.13;;
13252;SDS011;6693;54.370;10.132;2023-04-01T06:17:30;4.00;;;1.38;;
13252;SDS011;6693;54.370;10.132;2023-04-01T06:18:42;4.63;;;1.25;;
13252;SDS011;6693;54.370;10.132;2023-04-01T06:19:54;3.35;;;1.02;;
13252;SDS011;6693;54.370;10.132;2023-04-01T06:20:58;5.32;;;1.63;;
13252;SDS011;6693;54.370;10.132;2023-04-01T06:22:13;4.28;;;1.50;;
13252;SDS011;6693;54.370;10.132;2023-04-01T06:23:24;5.65;;;1.48;;
13252;SDS011;6693;54.370;10.132;2023-04-01T06:24:37;4.75;;;1.30;;
13252;SDS011;6693;54.370;10.132;2023-04-01T06:25:49;4.95;;;1.42;;
13252;SDS011;6693;54.370;10.132;2023-04-01T06:26:57;4.75;;;1.20;;
13252;SDS011;6693;54.370;10.132;2023-04-01T06:29:54;4.15;;;1.05;;
13252;SDS011;6693;54.370;10.132;2023-04-01T06:31:03;4.22;;;0.70;;